createdAt,value
2022-09-28T00:01:22.227Z,69.65
2022-09-28T00:03:52.141Z,69.53
2022-09-28T00:06:24.357Z,69.69
2022-09-28T00:08:51.732Z,70.23
2022-09-28T00:11:21.423Z,69.77
2022-09-28T00:13:56.449Z,69.80
2022-09-28T00:16:28.687Z,70.02
2022-09-28T00:18:55.820Z,70.74
2022-09-28T00:21:26.907Z,70.31
2022-09-28T00:24:14.778Z,70.54
2022-09-28T00:27:02.767Z,70.51
2022-09-28T00:29:34.372Z,70.48
2022-09-28T00:32:05.014Z,70.74
2022-09-28T00:34:38.086Z,70.57
2022-09-28T00:37:08.693Z,70.58
2022-09-28T00:39:36.019Z,70.83
2022-09-28T00:42:10.810Z,70.77
2022-09-28T00:44:43.559Z,70.58
2022-09-28T00:47:54.701Z,70.75
2022-09-28T00:50:33.430Z,70.56
2022-09-28T00:53:21.401Z,70.45
2022-09-28T00:56:00.390Z,70.42
2022-09-28T00:58:33.362Z,70.35
2022-09-28T01:01:00.271Z,70.33
2022-09-28T01:03:28.778Z,70.41
2022-09-28T01:05:59.229Z,70.27
2022-09-28T01:08:29.530Z,70.61
2022-09-28T01:10:59.849Z,70.35
2022-09-28T01:13:27.898Z,70.49
2022-09-28T01:16:31.142Z,70.50
2022-09-28T01:19:21.103Z,70.35
2022-09-28T01:21:59.410Z,70.29
2022-09-28T01:24:54.901Z,70.19
2022-09-28T01:27:32.407Z,70.12
2022-09-28T01:30:14.472Z,70.31
2022-09-28T01:32:49.912Z,70.46
2022-09-28T01:35:35.906Z,70.52
2022-09-28T01:38:13.263Z,70.64
2022-09-28T01:40:41.718Z,70.26
2022-09-28T01:43:24.381Z,70.15
2022-09-28T01:46:14.399Z,70.16
2022-09-28T01:48:54.447Z,70.50
2022-09-28T01:51:37.080Z,70.11
2022-09-28T01:54:19.914Z,70.26
2022-09-28T01:56:56.928Z,70.26
2022-09-28T01:59:29.890Z,70.45
2022-09-28T02:02:13.655Z,70.06
2022-09-28T02:04:53.945Z,69.96
2022-09-28T02:07:40.584Z,70.48
2022-09-28T02:10:18.169Z,70.33
2022-09-28T02:13:02.743Z,70.57
2022-09-28T02:16:03.543Z,70.85
2022-09-28T02:18:30.533Z,70.60
2022-09-28T02:21:08.906Z,70.28
2022-09-28T02:23:39.849Z,70.43
2022-09-28T02:26:18.099Z,70.55
2022-09-28T02:28:44.542Z,70.39
2022-09-28T02:31:11.055Z,70.05
2022-09-28T02:33:42.179Z,69.83
2022-09-28T02:36:09.501Z,69.99
2022-09-28T02:38:37.815Z,70.02
2022-09-28T02:41:26.474Z,69.87
2022-09-28T02:44:46.530Z,69.59
2022-09-28T02:47:39.590Z,70.18
2022-09-28T02:50:24.887Z,70.56
2022-09-28T02:53:28.468Z,70.57
2022-09-28T02:56:28.859Z,70.41
2022-09-28T02:59:32.389Z,69.83
2022-09-28T03:02:25.227Z,70.10
2022-09-28T03:05:06.683Z,69.82
2022-09-28T03:07:40.323Z,69.95
2022-09-28T03:10:27.799Z,70.49
2022-09-28T03:12:56.506Z,70.56
2022-09-28T03:15:32.034Z,70.18
2022-09-28T03:17:59.102Z,70.27
2022-09-28T03:20:27.388Z,70.27
2022-09-28T03:23:19.611Z,70.45
2022-09-28T03:25:40.661Z,71.14
2022-09-28T03:28:07.129Z,70.71
2022-09-28T03:30:33.558Z,70.75
2022-09-28T03:33:02.323Z,70.60
2022-09-28T03:35:28.787Z,70.65
2022-09-28T03:37:58.310Z,70.47
2022-09-28T03:40:24.814Z,70.49
2022-09-28T03:42:51.404Z,70.68
2022-09-28T03:45:17.827Z,70.59
2022-09-28T03:47:48.567Z,70.50
2022-09-28T03:50:15.963Z,70.80
2022-09-28T03:52:42.827Z,70.61
2022-09-28T03:55:09.907Z,70.38
2022-09-28T03:57:36.922Z,70.15
2022-09-28T04:00:05.626Z,70.12
2022-09-28T04:02:33.320Z,69.90
2022-09-28T04:04:59.987Z,69.68
2022-09-28T04:07:30.745Z,70.11
2022-09-28T04:09:57.770Z,70.11
2022-09-28T04:12:24.227Z,70.15
2022-09-28T04:14:50.852Z,70.22
2022-09-28T04:17:17.317Z,70.31
2022-09-28T04:19:43.743Z,70.40
2022-09-28T04:22:10.246Z,70.58
2022-09-28T04:24:36.681Z,70.52
2022-09-28T04:27:21.930Z,71.16
2022-09-28T04:29:48.343Z,70.50
2022-09-28T04:32:14.829Z,70.32
2022-09-28T04:34:44.079Z,70.25
2022-09-28T04:37:11.030Z,70.12
2022-09-28T04:39:37.575Z,70.51
2022-09-28T04:42:04.038Z,70.46
2022-09-28T04:44:30.551Z,70.41
2022-09-28T04:46:58.214Z,70.79
2022-09-28T04:49:26.225Z,70.03
2022-09-28T04:51:52.734Z,69.75
2022-09-28T04:54:19.159Z,69.28
2022-09-28T04:56:45.585Z,69.20
2022-09-28T04:59:13.353Z,69.82
2022-09-28T05:01:39.907Z,69.93
2022-09-28T05:04:06.481Z,69.70
2022-09-28T05:06:32.959Z,69.83
2022-09-28T05:08:59.454Z,70.23
2022-09-28T05:11:25.989Z,70.53
2022-09-28T05:13:52.465Z,70.60
2022-09-28T05:16:20.437Z,70.30
2022-09-28T05:18:47.297Z,70.29
2022-09-28T05:21:15.803Z,69.87
2022-09-28T05:23:47.662Z,70.11
2022-09-28T05:26:14.880Z,70.05
2022-09-28T05:28:41.405Z,70.36
2022-09-28T05:31:07.913Z,70.27
2022-09-28T05:33:34.490Z,70.37
2022-09-28T05:36:01.913Z,70.50
2022-09-28T05:38:29.957Z,70.52
2022-09-28T05:40:57.222Z,70.80
2022-09-28T05:43:24.067Z,70.75
2022-09-28T05:45:55.273Z,70.09
2022-09-28T05:48:23.059Z,70.32
2022-09-28T05:50:53.152Z,69.99
2022-09-28T05:53:20.207Z,69.97
2022-09-28T05:55:46.953Z,69.50
2022-09-28T05:58:13.559Z,69.86
2022-09-28T06:00:40.107Z,69.72
2022-09-28T06:03:11.726Z,69.26
2022-09-28T06:05:39.584Z,68.97
2022-09-28T06:08:10.214Z,69.02
2022-09-28T06:10:36.756Z,69.11
2022-09-28T06:13:03.419Z,69.21
2022-09-28T06:15:33.580Z,69.38
2022-09-28T06:18:02.087Z,69.13
2022-09-28T06:20:34.018Z,69.34
2022-09-28T06:23:00.466Z,68.82
2022-09-28T06:25:30.028Z,68.82
2022-09-28T06:27:57.577Z,68.71
2022-09-28T06:30:26.728Z,68.95
2022-09-28T06:32:58.127Z,68.81
2022-09-28T06:35:28.322Z,69.19
2022-09-28T06:37:54.787Z,69.36
2022-09-28T06:40:22.765Z,69.42
2022-09-28T06:43:12.558Z,69.21
2022-09-28T06:45:39.114Z,69.47
2022-09-28T06:48:06.840Z,69.73
2022-09-28T06:50:37.968Z,69.67
2022-09-28T06:53:07.272Z,69.59
2022-09-28T06:55:34.527Z,69.31
2022-09-28T06:58:05.784Z,69.33
2022-09-28T07:00:36.871Z,69.54
2022-09-28T07:03:11.661Z,69.18
2022-09-28T07:05:44.087Z,69.37
2022-09-28T07:08:11.417Z,69.70
2022-09-28T07:10:46.904Z,69.39
2022-09-28T07:13:38.073Z,69.17
2022-09-28T07:16:02.322Z,69.71
2022-09-28T07:18:29.703Z,69.87
2022-09-28T07:20:57.293Z,70.11
2022-09-28T07:23:27.363Z,69.93
2022-09-28T07:25:54.198Z,69.01
2022-09-28T07:28:21.620Z,68.85
2022-09-28T07:30:48.190Z,69.07
2022-09-28T07:33:17.023Z,69.14
2022-09-28T07:35:55.887Z,69.42
2022-09-28T07:38:22.958Z,69.37
2022-09-28T07:41:15.646Z,68.67
2022-09-28T07:43:42.223Z,68.79
2022-09-28T07:46:12.057Z,69.08
2022-09-28T07:48:43.674Z,68.48
2022-09-28T07:51:10.319Z,69.36
2022-09-28T07:53:38.301Z,69.38
2022-09-28T07:56:09.253Z,69.42
2022-09-28T07:58:38.408Z,69.48
2022-09-28T08:01:11.748Z,68.98
2022-09-28T08:03:38.959Z,68.93
2022-09-28T08:06:10.982Z,68.71
2022-09-28T08:08:37.816Z,69.15
2022-09-28T08:11:06.949Z,68.95
2022-09-28T08:13:33.412Z,69.31
2022-09-28T08:16:04.377Z,69.55
2022-09-28T08:18:31.727Z,69.68
2022-09-28T08:21:16.850Z,69.14
2022-09-28T08:23:44.400Z,69.61
2022-09-28T08:26:15.229Z,69.40
2022-09-28T08:28:43.409Z,69.54
2022-09-28T08:31:10.000Z,68.79
2022-09-28T08:33:37.031Z,68.34
2022-09-28T08:36:04.559Z,68.77
2022-09-28T08:38:32.633Z,69.04
2022-09-28T08:41:11.666Z,68.63
2022-09-28T08:44:24.482Z,68.10
2022-09-28T08:46:58.809Z,68.49
2022-09-28T08:49:36.899Z,68.24
2022-09-28T08:52:23.242Z,67.95
2022-09-28T08:55:09.770Z,68.61
2022-09-28T08:57:48.048Z,68.33
2022-09-28T09:00:26.058Z,68.55
2022-09-28T09:02:52.654Z,68.23
2022-09-28T09:05:29.009Z,68.52
2022-09-28T09:08:44.163Z,68.79
2022-09-28T09:11:32.136Z,68.33
2022-09-28T09:14:34.742Z,68.00
2022-09-28T09:17:19.186Z,67.97
2022-09-28T09:20:06.049Z,68.27
2022-09-28T09:22:47.178Z,68.08
2022-09-28T09:25:14.610Z,68.12
2022-09-28T09:28:42.739Z,67.40
2022-09-28T09:31:38.038Z,68.31
2022-09-28T09:34:17.810Z,68.44
2022-09-28T09:37:02.637Z,67.95
2022-09-28T09:40:10.032Z,67.54
2022-09-28T09:43:14.126Z,67.71
2022-09-28T09:46:19.863Z,68.04
2022-09-28T09:49:06.636Z,68.74
2022-09-28T09:51:48.823Z,68.43
2022-09-28T09:54:29.268Z,68.40
2022-09-28T09:57:32.056Z,67.99
2022-09-28T10:00:01.786Z,67.96
2022-09-28T10:02:34.237Z,67.58
2022-09-28T10:05:21.322Z,67.50
2022-09-28T10:08:02.373Z,67.41
2022-09-28T10:10:39.721Z,67.98
2022-09-28T10:13:06.282Z,67.84
2022-09-28T10:15:38.900Z,67.95
2022-09-28T10:18:12.341Z,67.94
2022-09-28T10:20:42.644Z,67.81
2022-09-28T10:23:37.779Z,68.07
2022-09-28T10:26:25.036Z,67.44
2022-09-28T10:28:57.967Z,67.57
2022-09-28T10:31:37.293Z,67.23
2022-09-28T10:34:10.423Z,67.36
2022-09-28T10:36:55.828Z,67.70
2022-09-28T10:40:06.162Z,67.67
2022-09-28T10:42:33.978Z,67.62
2022-09-28T10:45:12.676Z,67.74
2022-09-28T10:47:44.605Z,67.80
2022-09-28T10:50:25.446Z,67.37
2022-09-28T10:52:52.043Z,68.26
2022-09-28T10:55:21.226Z,67.82
2022-09-28T10:57:48.302Z,67.92
2022-09-28T11:00:40.361Z,67.64
2022-09-28T11:03:28.019Z,67.19
2022-09-28T11:05:59.436Z,67.69
2022-09-28T11:08:36.300Z,67.95
2022-09-28T11:11:07.667Z,67.67
2022-09-28T11:13:49.301Z,67.19
2022-09-28T11:16:34.079Z,67.35
2022-09-28T11:19:29.386Z,67.27
2022-09-28T11:21:55.927Z,67.62
2022-09-28T11:24:26.016Z,67.05
2022-09-28T11:26:56.759Z,67.46
2022-09-28T11:29:41.599Z,66.59
2022-09-28T11:32:15.535Z,68.30
2022-09-28T11:34:59.130Z,67.53
2022-09-28T11:38:00.791Z,67.77
2022-09-28T11:41:06.443Z,68.22
2022-09-28T11:43:57.777Z,68.60
2022-09-28T11:46:41.973Z,68.37
2022-09-28T11:49:27.835Z,68.43
2022-09-28T11:52:03.197Z,68.87
2022-09-28T11:54:43.501Z,68.62
2022-09-28T11:57:32.897Z,68.20
2022-09-28T12:00:13.410Z,69.01
2022-09-28T12:02:51.718Z,68.76
2022-09-28T12:05:55.513Z,68.55
2022-09-28T12:08:30.100Z,68.23
2022-09-28T12:11:38.831Z,67.77
2022-09-28T12:14:39.758Z,68.00
2022-09-28T12:17:24.833Z,66.46
2022-09-28T12:20:11.210Z,65.64
2022-09-28T12:23:01.804Z,62.94
2022-09-28T12:25:38.826Z,65.96
2022-09-28T12:28:25.635Z,66.59
2022-09-28T12:30:54.753Z,66.16
2022-09-28T12:33:21.469Z,66.36
2022-09-28T12:36:02.141Z,64.74
2022-09-28T12:39:08.409Z,65.97
2022-09-28T12:42:07.938Z,66.50
2022-09-28T12:45:42.881Z,66.16
2022-09-28T12:49:15.880Z,66.53
2022-09-28T12:51:59.587Z,66.68
2022-09-28T12:54:44.853Z,66.10
2022-09-28T12:57:48.894Z,66.22
2022-09-28T13:00:22.694Z,65.95
2022-09-28T13:02:55.195Z,66.08
2022-09-28T13:05:48.428Z,66.03
2022-09-28T13:08:26.792Z,65.70
2022-09-28T13:11:24.086Z,65.30
2022-09-28T13:14:03.192Z,65.27
2022-09-28T13:17:04.930Z,65.78
2022-09-28T13:19:46.790Z,65.86
2022-09-28T13:23:04.983Z,66.05
2022-09-28T13:25:36.043Z,66.70
2022-09-28T13:28:05.523Z,66.28
2022-09-28T13:30:39.046Z,66.04
2022-09-28T13:33:10.499Z,66.10
2022-09-28T13:35:43.853Z,65.96
2022-09-28T13:38:16.292Z,66.19
2022-09-28T13:41:04.164Z,66.34
2022-09-28T13:44:08.419Z,66.07
2022-09-28T13:47:20.000Z,65.95
2022-09-28T13:50:02.895Z,66.49
2022-09-28T13:52:47.703Z,64.43
2022-09-28T13:55:41.275Z,66.73
2022-09-28T13:58:23.155Z,65.75
2022-09-28T14:00:59.986Z,66.41
2022-09-28T14:04:23.908Z,65.59
2022-09-28T14:06:57.385Z,65.43
2022-09-28T14:09:40.872Z,65.45
2022-09-28T14:12:35.142Z,65.24
2022-09-28T14:15:07.150Z,65.57
2022-09-28T14:17:58.105Z,63.58
2022-09-28T14:20:27.143Z,65.01
2022-09-28T14:23:32.403Z,64.60
2022-09-28T14:26:33.222Z,64.37
2022-09-28T14:29:31.218Z,64.92
2022-09-28T14:32:09.365Z,64.94
2022-09-28T14:34:45.242Z,65.17
2022-09-28T14:37:52.600Z,65.57
2022-09-28T14:40:49.978Z,65.96
2022-09-28T14:43:34.581Z,64.55
2022-09-28T14:46:19.646Z,65.66
2022-09-28T14:48:53.378Z,66.09
2022-09-28T14:51:30.112Z,66.11
2022-09-28T14:54:05.695Z,65.63
2022-09-28T14:56:51.710Z,65.86
2022-09-28T14:59:22.750Z,65.96
2022-09-28T15:02:02.064Z,65.61
2022-09-28T15:04:31.047Z,65.49
2022-09-28T15:06:58.026Z,65.97
2022-09-28T15:09:37.220Z,65.40
2022-09-28T15:12:09.891Z,64.66
2022-09-28T15:14:47.828Z,65.17
2022-09-28T15:17:22.149Z,65.10
2022-09-28T15:20:35.133Z,64.62
2022-09-28T15:23:01.636Z,65.42
2022-09-28T15:25:31.700Z,64.81
2022-09-28T15:28:17.802Z,65.15
2022-09-28T15:30:44.362Z,65.33
2022-09-28T15:33:44.874Z,64.95
2022-09-28T15:36:26.192Z,64.50
2022-09-28T15:39:30.427Z,65.45
2022-09-28T15:41:59.305Z,66.12
2022-09-28T15:44:32.814Z,66.30
2022-09-28T15:47:07.559Z,66.25
2022-09-28T15:49:56.699Z,66.00
2022-09-28T15:52:35.236Z,66.21
2022-09-28T15:55:16.570Z,66.31
2022-09-28T15:57:44.026Z,66.42
2022-09-28T16:00:29.683Z,66.83
2022-09-28T16:03:08.644Z,66.61
2022-09-28T16:05:42.836Z,66.34
2022-09-28T16:08:24.880Z,66.38
2022-09-28T16:11:12.510Z,66.90
2022-09-28T16:14:06.176Z,68.08
2022-09-28T16:16:46.628Z,68.33
2022-09-28T16:19:25.765Z,68.26
2022-09-28T16:21:56.335Z,68.32
2022-09-28T16:24:28.143Z,68.42
2022-09-28T16:26:59.819Z,68.79
2022-09-28T16:29:39.635Z,68.39
2022-09-28T16:32:27.039Z,68.90
2022-09-28T16:35:19.847Z,68.37
2022-09-28T16:37:54.255Z,68.54
2022-09-28T16:40:20.744Z,67.89
2022-09-28T16:42:49.281Z,68.33
2022-09-28T16:45:25.828Z,68.59
2022-09-28T16:47:55.989Z,68.42
2022-09-28T16:50:24.452Z,68.65
2022-09-28T16:53:21.784Z,67.97
2022-09-28T16:55:49.727Z,68.39
2022-09-28T16:58:16.460Z,67.94
2022-09-28T17:00:43.375Z,67.95
2022-09-28T17:03:18.746Z,67.16
2022-09-28T17:05:47.980Z,66.65
2022-09-28T17:08:17.723Z,66.69
2022-09-28T17:13:39.568Z,66.74
2022-09-28T17:16:13.321Z,67.43
2022-09-28T17:18:40.027Z,67.44
2022-09-28T17:21:19.311Z,67.91
2022-09-28T17:23:48.780Z,68.31
2022-09-28T17:26:31.477Z,69.33
2022-09-28T17:28:59.302Z,69.66
2022-09-28T17:31:26.214Z,70.22
2022-09-28T17:33:52.798Z,69.84
2022-09-28T17:36:19.667Z,69.31
2022-09-28T17:38:48.497Z,69.80
2022-09-28T17:41:20.960Z,68.82
2022-09-28T17:43:48.649Z,69.33
2022-09-28T17:46:26.888Z,68.36
2022-09-28T17:48:54.724Z,68.62
2022-09-28T17:51:22.406Z,68.24
2022-09-28T17:53:49.125Z,68.43
2022-09-28T17:56:15.556Z,68.13
2022-09-28T17:58:41.991Z,68.37
2022-09-28T18:01:09.781Z,67.93
2022-09-28T18:03:38.320Z,67.28
2022-09-28T18:06:12.507Z,67.84
2022-09-28T18:08:39.109Z,68.73
2022-09-28T18:11:05.779Z,68.54
2022-09-28T18:13:32.298Z,68.22
2022-09-28T18:15:58.904Z,68.46
2022-09-28T18:18:25.732Z,68.94
2022-09-28T18:20:52.659Z,69.39
2022-09-28T18:23:19.301Z,69.80
2022-09-28T18:25:47.022Z,69.70
2022-09-28T18:28:14.643Z,69.80
2022-09-28T18:30:45.171Z,69.62
2022-09-28T18:33:13.839Z,69.66
2022-09-28T18:35:41.307Z,70.74
2022-09-28T18:38:07.971Z,70.98
2022-09-28T18:40:35.594Z,70.44
2022-09-28T18:43:03.592Z,69.61
2022-09-28T18:45:30.192Z,69.10
2022-09-28T18:47:57.545Z,68.83
2022-09-28T18:50:23.991Z,69.34
2022-09-28T18:52:50.472Z,69.00
2022-09-28T18:55:17.113Z,68.77
2022-09-28T18:57:46.251Z,68.17
2022-09-28T19:00:14.908Z,68.48
2022-09-28T19:02:41.544Z,68.45
2022-09-28T19:05:08.618Z,67.63
2022-09-28T19:07:35.215Z,67.89
2022-09-28T19:10:01.794Z,67.60
2022-09-28T19:12:28.294Z,67.64
2022-09-28T19:14:54.801Z,67.50
2022-09-28T19:17:21.314Z,67.16
2022-09-28T19:19:47.798Z,67.16
2022-09-28T19:22:14.236Z,67.20
2022-09-28T19:24:40.780Z,67.43
2022-09-28T19:27:07.233Z,67.18
2022-09-28T19:29:33.758Z,67.48
2022-09-28T19:32:00.279Z,68.38
2022-09-28T19:34:29.898Z,68.44
2022-09-28T19:36:57.042Z,68.57
2022-09-28T19:39:23.504Z,68.30
2022-09-28T19:41:51.178Z,68.95
2022-09-28T19:44:27.370Z,68.37
2022-09-28T19:47:06.821Z,68.68
2022-09-28T19:49:39.455Z,68.54
2022-09-28T19:52:15.641Z,69.05
2022-09-28T19:54:57.986Z,69.18
2022-09-28T19:57:31.607Z,69.42
2022-09-28T20:00:02.483Z,69.48
2022-09-28T20:02:29.912Z,69.21
2022-09-28T20:04:56.453Z,69.38
2022-09-28T20:07:22.934Z,69.33
2022-09-28T20:09:49.400Z,69.00
2022-09-28T20:12:15.859Z,69.12
2022-09-28T20:14:42.303Z,69.44
2022-09-28T20:17:09.445Z,69.08
2022-09-28T20:19:35.950Z,69.45
2022-09-28T20:22:02.684Z,70.01
2022-09-28T20:24:29.472Z,70.60
2022-09-28T20:26:55.928Z,70.81
2022-09-28T20:29:24.108Z,71.37
2022-09-28T20:31:51.610Z,71.20
2022-09-28T20:34:18.060Z,71.12
2022-09-28T20:36:44.575Z,71.02
2022-09-28T20:39:12.151Z,70.84
2022-09-28T20:41:38.724Z,70.22
2022-09-28T20:44:06.910Z,70.51
2022-09-28T20:46:35.729Z,70.73
2022-09-28T20:49:03.302Z,70.99
2022-09-28T20:51:30.040Z,71.59
2022-09-28T20:53:58.706Z,71.43
2022-09-28T20:56:30.647Z,71.24
2022-09-28T20:58:57.317Z,71.58
2022-09-28T21:01:27.283Z,71.66
2022-09-28T21:03:57.317Z,71.41
2022-09-28T21:06:33.925Z,70.48
2022-09-28T21:09:00.558Z,70.91
2022-09-28T21:11:29.575Z,70.48
2022-09-28T21:13:59.868Z,70.89
2022-09-28T21:16:29.919Z,71.11
2022-09-28T21:18:56.412Z,71.30
2022-09-28T21:21:24.532Z,71.47
2022-09-28T21:23:56.102Z,70.85
2022-09-28T21:26:26.678Z,70.33
2022-09-28T21:29:05.616Z,69.79
2022-09-28T21:31:42.148Z,69.20
2022-09-28T21:34:20.694Z,69.74
2022-09-28T21:36:54.301Z,69.86
2022-09-28T21:39:21.028Z,70.34
2022-09-28T21:41:47.993Z,70.34
2022-09-28T21:44:14.499Z,70.38
2022-09-28T21:46:41.985Z,70.00
2022-09-28T21:49:09.859Z,69.39
2022-09-28T21:51:37.518Z,69.07
2022-09-28T21:54:04.367Z,69.06
2022-09-28T21:56:30.903Z,69.20
2022-09-28T21:58:57.391Z,69.64
2022-09-28T22:01:25.936Z,69.91
2022-09-28T22:03:55.678Z,70.26
2022-09-28T22:06:27.814Z,70.52
2022-09-28T22:08:54.798Z,71.13
2022-09-28T22:11:25.207Z,71.11
2022-09-28T22:13:58.183Z,71.16
2022-09-28T22:16:30.566Z,71.29
2022-09-28T22:18:58.924Z,71.59
2022-09-28T22:21:31.684Z,71.59
2022-09-28T22:24:03.252Z,71.72
2022-09-28T22:26:32.315Z,70.94
2022-09-28T22:29:03.171Z,70.45
2022-09-28T22:31:36.598Z,70.57
2022-09-28T22:34:05.242Z,70.27
2022-09-28T22:36:31.923Z,70.45
2022-09-28T22:38:59.608Z,70.07
2022-09-28T22:41:26.861Z,69.69
2022-09-28T22:43:55.056Z,69.06
2022-09-28T22:46:28.179Z,68.99
2022-09-28T22:48:58.091Z,69.33
2022-09-28T22:51:28.095Z,69.92
2022-09-28T22:53:54.769Z,70.18
2022-09-28T22:56:21.261Z,70.46
2022-09-28T22:58:47.798Z,70.69
2022-09-28T23:01:24.948Z,70.71
2022-09-28T23:03:53.268Z,71.17
2022-09-28T23:06:23.219Z,71.26
2022-09-28T23:08:51.333Z,71.08
2022-09-28T23:11:19.464Z,71.17
2022-09-28T23:13:59.604Z,70.71
2022-09-28T23:16:27.092Z,70.71
2022-09-28T23:18:55.807Z,71.06
2022-09-28T23:21:27.580Z,71.07
2022-09-28T23:23:57.878Z,71.12
2022-09-28T23:26:27.939Z,71.52
2022-09-28T23:28:55.307Z,72.23
2022-09-28T23:31:26.024Z,71.51
2022-09-28T23:34:01.462Z,71.51
2022-09-28T23:36:28.579Z,72.06
2022-09-28T23:38:56.096Z,72.01
2022-09-28T23:41:22.570Z,71.91
2022-09-28T23:43:49.099Z,71.96
2022-09-28T23:46:20.468Z,72.11
2022-09-28T23:48:48.725Z,71.66
2022-09-28T23:51:15.162Z,71.76
2022-09-28T23:53:41.631Z,72.07
2022-09-28T23:56:08.102Z,72.20
2022-09-28T23:58:34.543Z,71.60
